Time;durP1;ratioP1;P1;durP2;ratioP2;P2;SDS_P1;SDS_P2;PMS_P1;PMS_P2;Temp;Humidity;BMP_temperature;BMP_pressure;BME280_temperature;BME280_humidity;BME280_pressure;Samples;Min_cycle;Max_cycle;Signal;HPM_P1;HPM_P2
2023/06/05 00:00:18;;;;;;;2.90;1.40;;;;;;;15.29;44.56;100774.48;1779142;80;21322;-80
2023/06/05 00:03:26;;;;;;;3.87;1.80;;;;;;;15.19;44.75;100769.30;1779217;80;21296;-80
2023/06/05 00:06:33;;;;;;;3.03;1.30;;;;;;;15.22;44.69;100768.06;1779445;80;21332;-81
2023/06/05 00:09:39;;;;;;;3.35;1.30;;;;;;;15.13;44.78;100763.73;1779278;80;21835;-80
2023/06/05 00:12:47;;;;;;;6.65;1.70;;;;;;;15.18;44.62;100759.33;1777845;80;21308;-81
2023/06/05 00:15:53;;;;;;;7.67;1.22;;;;;;;13.73;47.38;100752.66;1779438;80;21296;-81
2023/06/05 00:18:59;;;;;;;4.50;1.20;;;;;;;14.94;45.21;100758.32;1778199;80;21326;-80
2023/06/05 00:22:04;;;;;;;3.50;1.60;;;;;;;15.06;44.76;100760.91;1779331;80;21292;-81
2023/06/05 00:25:10;;;;;;;3.80;1.60;;;;;;;14.23;46.31;100760.22;1779213;80;21299;-81
2023/06/05 00:28:15;;;;;;;3.65;1.25;;;;;;;14.38;46.21;100761.59;1779977;80;21339;-81
2023/06/05 00:31:21;;;;;;;1.32;1.22;;;;;;;14.31;46.46;100760.66;1784732;80;21335;-81
2023/06/05 00:34:27;;;;;;;2.58;1.50;;;;;;;14.38;46.40;100752.48;1784794;80;21339;-80
2023/06/05 00:37:37;;;;;;;3.27;1.45;;;;;;;14.36;46.51;100754.06;1784742;80;21575;-81
2023/06/05 00:40:40;;;;;;;7.03;1.37;;;;;;;14.52;46.28;100763.52;1791189;80;21323;-81
2023/06/05 00:43:46;;;;;;;2.62;1.40;;;;;;;14.36;46.59;100760.94;1783308;80;21283;-80
2023/06/05 00:46:52;;;;;;;2.98;1.62;;;;;;;14.34;46.73;100756.13;1784756;80;21322;-81
2023/06/05 00:49:58;;;;;;;3.08;1.50;;;;;;;14.30;46.90;100757.06;1783360;80;22598;-81
2023/06/05 00:52:57;;;;;;;2.08;1.30;;;;;;;14.46;46.89;100757.90;1784421;80;21311;-81
2023/06/05 00:56:04;;;;;;;6.28;1.50;;;;;;;14.36;47.32;100755.44;1784419;80;21913;-81
2023/06/05 00:59:09;;;;;;;3.67;1.82;;;;;;;14.23;47.83;100753.86;1783962;80;21362;-81
2023/06/05 01:02:14;;;;;;;2.50;1.47;;;;;;;14.05;48.45;100758.35;1783089;80;21323;-80
2023/06/05 01:05:20;;;;;;;2.60;1.50;;;;;;;13.96;48.70;100759.48;1784523;80;21857;-80
2023/06/05 01:08:24;;;;;;;1.80;1.50;;;;;;;13.90;48.90;100762.98;1785555;80;21292;-81
2023/06/05 01:11:37;;;;;;;2.30;1.25;;;;;;;13.83;49.05;100755.98;1784475;80;21343;-80
2023/06/05 01:14:49;;;;;;;5.00;1.42;;;;;;;13.90;48.85;100765.22;1783350;80;21296;-81
2023/06/05 01:17:53;;;;;;;3.65;1.67;;;;;;;13.70;49.25;100758.55;1783433;80;21334;-81
2023/06/05 01:20:59;;;;;;;4.25;1.60;;;;;;;13.73;49.13;100756.78;1784718;80;21327;-81
2023/06/05 01:24:06;;;;;;;2.87;1.62;;;;;;;13.64;49.17;100773.01;1771415;80;21303;-81
2023/06/05 01:27:21;;;;;;;2.98;1.52;;;;;;;13.60;49.21;100769.80;1784900;80;21283;-81
2023/06/05 01:30:31;;;;;;;3.95;2.05;;;;;;;13.68;48.84;100768.85;1773419;80;21347;-81
2023/06/05 01:33:43;;;;;;;6.45;1.95;;;;;;;13.72;48.71;100768.30;1769518;81;21336;-81
2023/06/05 01:36:49;;;;;;;4.78;2.27;;;;;;;13.88;48.16;100757.69;1771058;81;21292;-81
2023/06/05 01:39:55;;;;;;;6.05;2.27;;;;;;;13.79;48.28;100758.28;1770215;81;21328;-81
2023/06/05 01:43:02;;;;;;;4.70;2.40;;;;;;;13.91;48.06;100761.41;1770878;81;21288;-81
2023/06/05 01:46:07;;;;;;;6.45;2.08;;;;;;;13.91;47.97;100762.79;1770931;81;21882;-81
2023/06/05 01:49:13;;;;;;;4.35;2.62;;;;;;;14.03;47.72;100762.68;1770915;81;21296;-81
2023/06/05 01:52:18;;;;;;;6.22;2.70;;;;;;;14.02;47.62;100758.23;1771073;81;21930;-81
2023/06/05 01:55:29;;;;;;;9.33;2.65;;;;;;;13.72;48.36;100765.55;1771208;81;21323;-80
2023/06/05 01:58:36;;;;;;;8.33;3.05;;;;;;;13.71;48.65;100761.09;1769711;81;21292;-80
2023/06/05 02:01:44;;;;;;;11.03;2.90;;;;;;;14.04;48.43;100767.12;1769959;81;21315;-80
2023/06/05 02:04:49;;;;;;;9.65;2.90;;;;;;;14.39;48.05;100755.03;1771211;81;21291;-80
2023/06/05 02:07:58;;;;;;;9.93;3.50;;;;;;;14.85;47.62;100755.35;1769554;81;21894;-79
2023/06/05 02:11:09;;;;;;;7.42;2.90;;;;;;;15.22;46.87;100763.41;1769855;81;21823;-82
2023/06/05 02:14:12;;;;;;;5.60;3.15;;;;;;;15.52;46.08;100763.27;1769631;81;21300;-81
2023/06/05 02:17:19;;;;;;;15.90;3.37;;;;;;;16.04;45.39;100764.30;1770879;81;21316;-82
2023/06/05 02:20:23;;;;;;;6.62;2.67;;;;;;;16.33;44.84;100776.17;1770298;81;21340;-82
2023/06/05 02:23:30;;;;;;;5.53;3.50;;;;;;;16.71;44.09;100777.97;1769952;81;21918;-80
2023/06/05 02:26:36;;;;;;;10.05;3.12;;;;;;;16.96;43.48;100775.55;1771050;81;21245;-81
2023/06/05 02:29:43;;;;;;;6.47;2.83;;;;;;;17.30;42.97;100776.50;1770776;81;21903;-81
2023/06/05 02:32:56;;;;;;;6.12;3.00;;;;;;;17.77;42.23;100776.06;1779260;80;21292;-81
2023/06/05 02:35:51;;;;;;;7.67;2.72;;;;;;;18.11;41.60;100772.21;1777716;80;21295;-81
2023/06/05 02:38:57;;;;;;;5.42;2.50;;;;;;;18.72;40.66;100773.81;1777773;80;21330;-81
2023/06/05 02:42:03;;;;;;;13.50;3.10;;;;;;;19.23;39.77;100774.33;1777678;80;21307;-80
2023/06/05 02:45:09;;;;;;;8.13;2.55;;;;;;;19.33;39.48;100770.53;1777588;80;21327;-81
2023/06/05 02:48:14;;;;;;;5.17;2.47;;;;;;;19.78;38.74;100764.92;1779110;80;21328;-81
2023/06/05 02:51:19;;;;;;;3.98;2.12;;;;;;;20.02;38.16;100768.23;1778183;80;21317;-81
2023/06/05 02:54:28;;;;;;;7.78;2.60;;;;;;;20.24;37.43;100767.84;1777769;80;21323;-80
2023/06/05 02:57:41;;;;;;;4.83;2.37;;;;;;;20.29;37.49;100763.28;1779024;80;21867;-80
2023/06/05 03:00:40;;;;;;;6.72;2.50;;;;;;;20.64;36.93;100771.05;1778692;80;21291;-80
2023/06/05 03:03:53;;;;;;;7.58;2.75;;;;;;;21.16;36.29;100779.26;1779198;80;21292;-80
2023/06/05 03:06:57;;;;;;;3.60;2.15;;;;;;;21.84;35.29;100771.66;1777837;80;21307;-80
2023/06/05 03:09:57;;;;;;;3.20;1.82;;;;;;;22.17;34.71;100769.73;1777715;80;21954;-79
2023/06/05 03:13:05;;;;;;;6.50;2.33;;;;;;;22.12;34.80;100769.61;1779117;80;22629;-80
2023/06/05 03:16:11;;;;;;;6.42;1.98;;;;;;;22.12;34.62;100768.22;1779272;80;21280;-80
2023/06/05 03:19:17;;;;;;;10.38;2.37;;;;;;;22.14;34.42;100773.83;1779113;80;21287;-81
2023/06/05 03:22:26;;;;;;;3.30;2.17;;;;;;;21.94;34.81;100770.52;1777774;80;21340;-80
2023/06/05 03:25:32;;;;;;;4.03;2.25;;;;;;;21.83;35.03;100771.33;1778988;80;21358;-81
2023/06/05 03:28:38;;;;;;;7.47;2.47;;;;;;;21.74;35.36;100764.41;1779176;80;21926;-80
2023/06/05 03:31:46;;;;;;;6.70;1.87;;;;;;;21.90;34.67;100766.52;1779749;80;21899;-80
2023/06/05 03:34:53;;;;;;;10.98;2.22;;;;;;;21.79;34.68;100764.03;1784595;80;21311;-81
2023/06/05 03:38:01;;;;;;;5.90;2.15;;;;;;;21.97;34.79;100770.02;1784372;80;21553;-81
2023/06/05 03:41:06;;;;;;;4.60;2.27;;;;;;;21.88;33.99;100766.77;1784056;80;21941;-80
2023/06/05 03:44:12;;;;;;;6.90;2.45;;;;;;;21.75;34.55;100768.38;1784419;80;21296;-81
2023/06/05 03:47:16;;;;;;;4.17;2.30;;;;;;;21.80;34.29;100771.28;1784660;80;21311;-81
2023/06/05 03:50:23;;;;;;;7.70;2.12;;;;;;;21.71;34.78;100767.70;1784420;80;21328;-81
2023/06/05 03:53:31;;;;;;;10.20;3.02;;;;;;;21.50;35.30;100769.95;1784671;80;21296;-80
2023/06/05 03:56:28;;;;;;;6.45;2.33;;;;;;;21.38;35.53;100777.41;1784505;80;21869;-80
2023/06/05 03:59:33;;;;;;;5.75;2.52;;;;;;;21.50;35.40;100767.17;1784479;80;21311;-80
2023/06/05 04:02:40;;;;;;;6.05;2.30;;;;;;;21.63;35.08;100772.51;1783361;80;21898;-81
2023/06/05 04:05:46;;;;;;;4.33;2.00;;;;;;;21.45;35.27;100779.53;1784519;80;21339;-80
2023/06/05 04:08:52;;;;;;;4.47;2.17;;;;;;;21.37;35.15;100784.06;1784748;80;21362;-80
2023/06/05 04:11:59;;;;;;;5.72;2.40;;;;;;;21.24;35.68;100781.42;1791737;80;21310;-81
2023/06/05 04:15:04;;;;;;;5.05;2.22;;;;;;;21.29;35.63;100782.95;1784445;80;21937;-80
2023/06/05 04:18:11;;;;;;;7.58;2.47;;;;;;;21.39;35.47;100779.94;1784740;80;21894;-81
2023/06/05 04:21:16;;;;;;;8.50;2.42;;;;;;;21.14;35.41;100782.83;1784679;80;21347;-81
2023/06/05 04:24:25;;;;;;;5.37;2.45;;;;;;;21.07;35.60;100775.65;1784469;80;21311;-80
2023/06/05 04:27:32;;;;;;;9.13;2.83;;;;;;;21.29;35.07;100769.05;1783118;80;21322;-80
2023/06/05 04:30:38;;;;;;;4.83;2.58;;;;;;;21.22;35.69;100772.45;1783982;80;21311;-80
2023/06/05 04:33:45;;;;;;;8.43;2.47;;;;;;;21.42;35.80;100771.12;1772927;80;21901;-80
2023/06/05 04:36:51;;;;;;;7.53;2.33;;;;;;;21.57;34.98;100776.80;1770850;81;21331;-80
2023/06/05 04:40:17;;;;;;;10.05;2.50;;;;;;;21.28;35.30;100777.09;1770436;81;21335;-80
2023/06/05 04:43:09;;;;;;;5.85;2.40;;;;;;;21.60;34.77;100784.14;1769745;81;21336;-81
2023/06/05 04:46:16;;;;;;;3.65;2.37;;;;;;;21.64;34.43;100781.19;1770814;81;21303;-79
2023/06/05 04:49:23;;;;;;;8.98;2.35;;;;;;;21.74;34.29;100781.12;1770892;81;21320;-80
2023/06/05 04:52:32;;;;;;;9.03;2.70;;;;;;;21.87;33.75;100780.36;1769438;81;21347;-80
2023/06/05 04:55:38;;;;;;;9.00;2.92;;;;;;;21.89;33.83;100780.14;1769796;81;21323;-80
2023/06/05 04:58:47;;;;;;;5.08;2.58;;;;;;;21.88;34.21;100773.73;1740254;81;21841;-80
2023/06/05 05:01:53;;;;;;;11.80;2.60;;;;;;;22.08;33.03;100783.13;1738880;82;21963;-81
2023/06/05 05:05:00;;;;;;;7.70;2.60;;;;;;;22.04;32.28;100780.52;1739096;82;21310;-81
2023/06/05 05:08:07;;;;;;;9.83;2.35;;;;;;;22.03;31.96;100776.05;1740433;82;21298;-80
2023/06/05 05:11:13;;;;;;;10.68;3.10;;;;;;;22.19;31.89;100792.06;1739354;82;21966;-81
2023/06/05 05:14:19;;;;;;;6.33;2.10;;;;;;;22.43;31.49;100784.55;1740301;82;21302;-81
2023/06/05 05:17:25;;;;;;;6.37;2.47;;;;;;;22.49;30.71;100790.23;1740277;82;21302;-80
2023/06/05 05:20:32;;;;;;;7.58;2.77;;;;;;;22.54;30.60;100782.87;1744279;81;22093;-81
2023/06/05 05:23:37;;;;;;;7.00;2.47;;;;;;;22.53;31.47;100787.27;1757333;81;21973;-81
2023/06/05 05:26:44;;;;;;;4.85;2.58;;;;;;;22.85;32.47;100794.69;1752596;81;21904;-80
2023/06/05 05:29:54;;;;;;;8.58;2.30;;;;;;;23.03;31.08;100790.38;1744581;81;21953;-80
2023/06/05 05:32:59;;;;;;;8.13;2.67;;;;;;;23.09;31.04;100799.14;1756715;81;21978;-80
2023/06/05 05:36:04;;;;;;;5.28;2.67;;;;;;;23.22;30.66;100793.83;1723236;82;21320;-81
2023/06/05 05:39:11;;;;;;;7.78;2.95;;;;;;;23.05;31.31;100800.72;1692280;83;21942;-83
2023/06/05 05:42:17;;;;;;;7.58;3.17;;;;;;;23.11;30.15;100801.16;1702846;83;21307;-82
2023/06/05 05:45:29;;;;;;;8.65;2.60;;;;;;;23.36;30.60;100799.96;1701068;83;21212;-81
2023/06/05 05:48:34;;;;;;;8.13;2.85;;;;;;;23.54;30.18;100795.58;1696490;83;21324;-80
2023/06/05 05:51:40;;;;;;;5.28;2.50;;;;;;;23.51;30.13;100799.41;1707850;83;21329;-81
2023/06/05 05:54:46;;;;;;;5.70;2.25;;;;;;;23.58;30.30;100792.58;1698882;83;21311;-80
2023/06/05 05:57:53;;;;;;;4.78;2.70;;;;;;;23.65;30.73;100791.89;1705221;83;21330;-81
2023/06/05 06:01:00;;;;;;;7.65;3.70;;;;;;;23.48;29.85;100792.40;1711650;83;21393;-81
2023/06/05 06:04:06;;;;;;;10.23;3.40;;;;;;;23.66;27.99;100797.77;1700007;83;21294;-81
2023/06/05 06:07:12;;;;;;;6.42;3.02;;;;;;;23.60;28.55;100795.95;1694043;83;21367;-80
2023/06/05 06:10:19;;;;;;;10.32;4.12;;;;;;;23.69;29.33;100790.85;1701899;83;21885;-81
2023/06/05 06:13:26;;;;;;;6.95;3.20;;;;;;;23.46;29.32;100797.36;1696898;83;21315;-81
2023/06/05 06:16:33;;;;;;;6.28;3.72;;;;;;;23.61;28.91;100794.86;1699328;83;21314;-81
2023/06/05 06:19:38;;;;;;;6.50;3.33;;;;;;;23.69;29.20;100797.28;1691832;83;21348;-80
2023/06/05 06:22:51;;;;;;;8.73;4.67;;;;;;;23.88;28.44;100798.45;1842329;76;22216;-81
2023/06/05 06:25:56;;;;;;;11.25;4.50;;;;;;;23.77;28.30;100796.59;1814193;77;21310;-81
2023/06/05 06:29:01;;;;;;;16.23;5.20;;;;;;;23.77;27.11;100797.98;1808002;77;21322;-82
2023/06/05 06:31:54;;;;;;;18.77;5.20;;;;;;;23.54;26.55;100800.31;1816514;77;22554;-81
2023/06/05 06:35:01;;;;;;;6.85;3.90;;;;;;;23.43;27.24;100811.81;1821072;77;21296;-81
2023/06/05 06:38:07;;;;;;;9.03;4.10;;;;;;;23.42;27.22;100801.75;1815254;77;21334;-82
2023/06/05 06:41:12;;;;;;;8.48;3.60;;;;;;;23.34;26.93;100801.62;1824737;77;21882;-81
2023/06/05 06:44:18;;;;;;;5.05;2.92;;;;;;;23.28;27.88;100796.16;1821563;77;21298;-81
2023/06/05 06:47:25;;;;;;;10.50;2.50;;;;;;;23.40;28.13;100795.03;1763048;80;21360;-82
2023/06/05 06:50:31;;;;;;;9.85;2.42;;;;;;;23.62;27.60;100796.57;1790402;79;21502;-81
2023/06/05 06:53:37;;;;;;;4.47;2.77;;;;;;;23.73;28.22;100806.01;1766404;79;21948;-80
2023/06/05 06:56:42;;;;;;;5.83;2.65;;;;;;;23.69;27.44;100808.45;1764072;79;21295;-81
2023/06/05 06:59:51;;;;;;;14.68;2.85;;;;;;;23.49;27.41;100803.86;1745522;80;21277;-80
2023/06/05 07:02:58;;;;;;;5.65;3.17;;;;;;;23.33;28.12;100801.84;1742190;81;21311;-80
2023/06/05 07:06:06;;;;;;;5.35;1.90;;;;;;;23.39;27.62;100795.29;1743047;81;21311;-81
2023/06/05 07:09:11;;;;;;;4.78;1.87;;;;;;;23.39;27.05;100793.89;1752125;81;21271;-81
2023/06/05 07:12:22;;;;;;;3.62;1.70;;;;;;;23.28;26.96;100790.59;1748187;81;21627;-81
2023/06/05 07:15:29;;;;;;;4.45;1.77;;;;;;;23.27;26.13;100797.27;1739174;81;21299;-81
2023/06/05 07:18:37;;;;;;;4.60;2.00;;;;;;;23.34;25.98;100802.17;1739122;81;21318;-81
2023/06/05 07:21:43;;;;;;;4.05;1.75;;;;;;;23.53;26.43;100803.66;1737301;81;21369;-80
2023/06/05 07:24:57;;;;;;;4.50;1.57;;;;;;;23.60;25.58;100807.13;1719759;82;21308;-83
2023/06/05 07:28:15;;;;;;;3.70;1.25;;;;;;;23.62;26.44;100806.34;1719933;82;21354;-82
2023/06/05 07:31:24;;;;;;;5.45;1.65;;;;;;;23.47;25.75;100793.47;1712865;82;21346;-81
2023/06/05 07:34:31;;;;;;;9.60;1.25;;;;;;;23.41;25.57;100795.32;1714135;82;21323;-81
2023/06/05 07:37:51;;;;;;;3.35;1.45;;;;;;;23.43;26.24;100803.44;1721718;82;21206;-81
2023/06/05 07:41:01;;;;;;;2.80;1.33;;;;;;;23.31;25.56;100806.29;1677479;84;21414;-81
2023/06/05 07:44:04;;;;;;;2.50;1.27;;;;;;;23.26;25.34;100793.63;1647627;85;21335;-81
2023/06/05 07:47:10;;;;;;;1.30;0.85;;;;;;;23.50;26.03;100794.38;1637234;85;21316;-82
2023/06/05 07:50:16;;;;;;;4.60;1.30;;;;;;;23.49;26.34;100795.48;1646156;85;21306;-81
2023/06/05 07:53:22;;;;;;;10.10;1.60;;;;;;;23.50;26.26;100791.59;1669533;85;21319;-80
2023/06/05 07:56:33;;;;;;;2.30;1.25;;;;;;;23.57;26.09;100795.08;1668945;84;21313;-80
2023/06/05 07:59:40;;;;;;;3.35;1.30;;;;;;;23.46;26.07;100795.42;1644701;85;21362;-82
2023/06/05 08:02:53;;;;;;;3.75;1.50;;;;;;;23.46;24.98;100803.80;1688492;82;21387;-82
2023/06/05 08:06:01;;;;;;;4.40;1.37;;;;;;;23.49;25.01;100787.66;1684304;83;21390;-81
2023/06/05 08:09:09;;;;;;;2.90;1.47;;;;;;;23.71;25.42;100797.02;1690603;84;21362;-81
2023/06/05 08:12:16;;;;;;;2.50;1.35;;;;;;;23.84;25.68;100795.86;1691456;82;21337;-82
2023/06/05 08:15:32;;;;;;;3.85;1.50;;;;;;;23.78;26.24;100795.48;1694370;82;22361;-82
2023/06/05 08:18:39;;;;;;;5.00;1.95;;;;;;;23.87;25.52;100796.77;1655561;85;21873;-81
2023/06/05 08:21:46;;;;;;;3.77;1.62;;;;;;;23.64;25.06;100808.36;1687734;84;21954;-81
2023/06/05 08:24:54;;;;;;;3.52;1.85;;;;;;;23.42;26.18;100810.97;1679625;83;21404;-81
2023/06/05 08:28:00;;;;;;;3.40;1.62;;;;;;;23.47;26.53;100792.92;1679219;84;22659;-81
2023/06/05 08:31:09;;;;;;;6.12;1.67;;;;;;;23.60;26.10;100793.16;1695256;82;21298;-81
2023/06/05 08:34:15;;;;;;;4.45;1.92;;;;;;;23.73;26.29;100803.77;1672534;84;21334;-81
2023/06/05 08:37:21;;;;;;;5.62;1.95;;;;;;;23.76;25.59;100792.07;1673720;84;21345;-81
2023/06/05 08:40:28;;;;;;;3.75;1.47;;;;;;;23.87;25.78;100796.20;1676942;83;21683;-80
2023/06/05 08:43:34;;;;;;;3.45;1.60;;;;;;;23.83;25.80;100798.36;1700407;84;21330;-81
2023/06/05 08:46:43;;;;;;;5.00;1.57;;;;;;;23.78;26.01;100794.08;1717716;83;21345;-80
2023/06/05 08:49:49;;;;;;;3.30;1.95;;;;;;;23.81;25.14;100794.98;1669910;85;21326;-80
2023/06/05 08:52:55;;;;;;;17.40;2.22;;;;;;;23.79;26.10;100792.42;1679988;84;21330;-82
2023/06/05 08:56:02;;;;;;;2.72;1.22;;;;;;;23.77;25.87;100797.98;1735528;81;21310;-82
2023/06/05 08:59:14;;;;;;;5.17;1.52;;;;;;;23.76;25.79;100802.72;1722690;81;21290;-81
2023/06/05 09:02:19;;;;;;;2.05;1.32;;;;;;;23.74;26.38;100795.68;1721216;81;21319;-83
2023/06/05 09:05:25;;;;;;;4.40;1.52;;;;;;;23.79;25.67;100788.78;1725631;81;21872;-82
2023/06/05 09:08:40;;;;;;;1.82;1.47;;;;;;;23.76;26.80;100788.76;1729025;82;21876;-81
2023/06/05 09:11:40;;;;;;;7.75;1.57;;;;;;;23.77;26.39;100779.83;1732424;81;21294;-81
2023/06/05 09:14:34;;;;;;;4.75;1.75;;;;;;;23.83;27.35;100788.03;1727229;81;21306;-81
2023/06/05 09:17:21;;;;;;;2.70;1.70;;;;;;;23.95;26.86;100787.42;1735404;81;21320;-81
2023/06/05 09:20:14;;;;;;;6.83;1.70;;;;;;;23.70;26.61;100794.78;1710998;81;21303;-81
2023/06/05 09:23:00;;;;;;;3.17;1.60;;;;;;;23.78;26.53;100785.70;1726853;81;21346;-81
2023/06/05 09:25:55;;;;;;;5.35;1.55;;;;;;;24.02;26.89;100780.25;1723149;81;21330;-81
2023/06/05 09:28:57;;;;;;;3.62;1.50;;;;;;;24.11;27.01;100775.09;1720755;81;21900;-81
2023/06/05 09:31:50;;;;;;;1.87;1.50;;;;;;;24.16;26.89;100769.03;1730711;81;21298;-81
2023/06/05 09:35:01;;;;;;;3.05;1.40;;;;;;;24.41;25.99;100778.94;1730000;81;21365;-81
2023/06/05 09:38:06;;;;;;;4.90;1.70;;;;;;;24.25;25.71;100782.02;1704786;82;21384;-81
2023/06/05 09:41:20;;;;;;;2.83;1.30;;;;;;;24.18;27.52;100779.94;1725941;81;21357;-81
2023/06/05 09:44:27;;;;;;;4.85;1.50;;;;;;;24.31;27.17;100774.00;1723978;82;21390;-81
2023/06/05 09:47:34;;;;;;;4.78;1.20;;;;;;;24.22;26.07;100776.94;1719800;82;21318;-82
2023/06/05 09:50:42;;;;;;;1.70;1.17;;;;;;;24.36;25.90;100770.44;1722717;82;21338;-80
2023/06/05 09:53:57;;;;;;;4.55;1.95;;;;;;;24.24;25.94;100763.57;1720525;81;21396;-81
2023/06/05 09:57:13;;;;;;;2.60;1.65;;;;;;;24.37;26.79;100756.26;1731265;82;21327;-81
2023/06/05 10:00:20;;;;;;;6.90;1.90;;;;;;;24.61;25.38;100758.83;1725375;82;21369;-81
2023/06/05 10:03:26;;;;;;;5.17;1.95;;;;;;;24.77;25.26;100776.66;1728367;82;21299;-82
2023/06/05 10:06:36;;;;;;;7.47;1.77;;;;;;;24.30;25.41;100759.73;1727672;81;21295;-82
2023/06/05 10:09:43;;;;;;;6.15;1.42;;;;;;;24.40;25.93;100743.70;1725077;82;21303;-82
2023/06/05 10:12:50;;;;;;;2.22;1.60;;;;;;;24.56;25.36;100754.02;1728583;81;21415;-82
2023/06/05 10:15:58;;;;;;;3.35;1.17;;;;;;;24.55;25.49;100759.29;1720239;82;21352;-82
2023/06/05 10:19:04;;;;;;;15.63;1.65;;;;;;;24.63;25.34;100750.46;1719245;81;21330;-80
2023/06/05 10:22:09;;;;;;;2.80;1.40;;;;;;;24.39;26.02;100768.02;1742133;81;21338;-80
2023/06/05 10:25:16;;;;;;;6.37;1.35;;;;;;;24.20;25.53;100752.60;1730591;81;21344;-81
2023/06/05 10:28:43;;;;;;;4.22;1.55;;;;;;;24.27;25.80;100752.41;1729337;82;21338;-81
2023/06/05 10:32:03;;;;;;;7.55;1.47;;;;;;;24.45;26.23;100740.98;1736616;82;21322;-81
2023/06/05 10:35:21;;;;;;;7.93;1.10;;;;;;;24.65;25.55;100751.03;1710946;81;21354;-81
2023/06/05 10:38:35;;;;;;;7.30;1.50;;;;;;;24.71;25.99;100734.64;1737523;81;22684;-81
2023/06/05 10:41:41;;;;;;;8.40;1.52;;;;;;;24.47;26.08;100724.80;1730736;80;21386;-81
2023/06/05 10:44:44;;;;;;;4.85;1.60;;;;;;;24.68;25.83;100735.14;1742335;81;21313;-82
2023/06/05 10:47:47;;;;;;;3.42;1.60;;;;;;;24.92;25.66;100725.09;1730181;82;21298;-81
2023/06/05 10:50:33;;;;;;;3.10;1.45;;;;;;;24.85;25.62;100739.84;1735367;81;21319;-82
2023/06/05 10:53:54;;;;;;;4.10;1.57;;;;;;;24.84;24.64;100728.34;1727572;82;22008;-81
2023/06/05 10:57:03;;;;;;;5.97;1.65;;;;;;;24.95;25.22;100738.57;1733928;81;22517;-80
2023/06/05 10:59:56;;;;;;;2.62;1.60;;;;;;;24.56;24.86;100733.05;1724398;81;21294;-81
2023/06/05 11:03:03;;;;;;;3.20;1.37;;;;;;;24.63;25.39;100736.48;1690343;82;21612;-80
2023/06/05 11:06:21;;;;;;;6.60;1.70;;;;;;;24.74;25.60;100730.45;1727251;82;21282;-80
2023/06/05 11:09:26;;;;;;;8.15;1.60;;;;;;;24.86;25.36;100727.55;1730978;82;21298;-81
2023/06/05 11:12:31;;;;;;;3.10;1.52;;;;;;;24.68;25.84;100731.51;1726279;82;22554;-81
2023/06/05 11:15:50;;;;;;;7.25;1.10;;;;;;;24.76;25.09;100714.84;1732477;81;21319;-80
2023/06/05 11:18:56;;;;;;;4.90;1.52;;;;;;;25.03;25.64;100718.53;1722772;82;21307;-80
2023/06/05 11:22:17;;;;;;;2.62;1.62;;;;;;;25.04;25.27;100716.57;1726026;82;21951;-82
2023/06/05 11:25:35;;;;;;;11.48;1.40;;;;;;;25.28;25.39;100710.14;1719739;82;21313;-82
2023/06/05 11:28:48;;;;;;;2.45;1.30;;;;;;;25.44;24.76;100704.97;1728098;82;21268;-82
2023/06/05 11:31:55;;;;;;;4.20;1.60;;;;;;;25.57;24.97;100698.94;1731563;81;21284;-82
2023/06/05 11:35:00;;;;;;;3.20;1.27;;;;;;;25.66;24.25;100702.10;1725115;82;21302;-82
2023/06/05 11:38:24;;;;;;;1.67;1.05;;;;;;;25.61;25.79;100716.06;1731601;82;21327;-82
2023/06/05 11:41:29;;;;;;;3.42;1.47;;;;;;;25.56;24.88;100716.02;1726040;82;21262;-82
2023/06/05 11:44:42;;;;;;;11.05;1.95;;;;;;;25.50;24.98;100705.30;1728705;81;21313;-82
2023/06/05 11:47:48;;;;;;;4.65;1.67;;;;;;;25.18;25.53;100703.89;1729221;82;21632;-82
2023/06/05 11:51:05;;;;;;;7.00;1.22;;;;;;;25.20;25.72;100705.30;1727155;82;21329;-81
2023/06/05 11:54:14;;;;;;;5.47;1.50;;;;;;;25.13;25.37;100703.28;1728131;82;21888;-80
2023/06/05 11:57:17;;;;;;;4.78;1.50;;;;;;;25.03;26.27;100713.45;1731729;82;21337;-80
2023/06/05 12:00:29;;;;;;;8.70;1.82;;;;;;;24.88;25.42;100705.73;1735440;82;21323;-82
2023/06/05 12:03:36;;;;;;;3.22;1.65;;;;;;;25.09;25.63;100700.71;1711312;82;21619;-81
2023/06/05 12:06:53;;;;;;;6.60;1.85;;;;;;;25.04;24.99;100709.02;1728135;82;21889;-81
2023/06/05 12:10:03;;;;;;;6.05;2.02;;;;;;;25.19;25.57;100693.81;1722101;82;21282;-81
2023/06/05 12:13:09;;;;;;;6.33;1.72;;;;;;;25.32;25.57;100701.52;1732757;82;21315;-81
2023/06/05 12:16:16;;;;;;;9.15;1.52;;;;;;;25.38;25.13;100720.88;1729240;82;21187;-80
2023/06/05 12:19:24;;;;;;;5.00;1.67;;;;;;;25.38;24.66;100715.84;1733813;82;21318;-81
2023/06/05 12:22:30;;;;;;;4.85;1.70;;;;;;;25.38;24.31;100691.48;1732013;82;21996;-81
2023/06/05 12:25:37;;;;;;;5.40;1.50;;;;;;;25.52;24.76;100691.05;1732510;82;21247;-81
2023/06/05 12:28:44;;;;;;;2.90;1.30;;;;;;;25.62;25.36;100694.78;1731979;82;21295;-80
2023/06/05 12:31:50;;;;;;;6.47;1.40;;;;;;;25.39;24.97;100709.13;1731761;82;21287;-80
2023/06/05 12:34:56;;;;;;;3.05;1.75;;;;;;;25.16;24.96;100691.53;1732706;82;21872;-81
2023/06/05 12:38:08;;;;;;;4.12;1.30;;;;;;;24.97;25.35;100694.37;1730594;82;21299;-80
2023/06/05 12:41:12;;;;;;;;;;;;;;;25.16;24.86;100694.89;1730831;82;21290;-81
2023/06/05 12:44:18;;;;;;;17.32;1.70;;;;;;;25.23;24.29;100691.34;1730275;82;20280;-82
2023/06/05 12:47:23;;;;;;;5.40;1.50;;;;;;;25.24;24.79;100685.47;1730175;82;21286;-81
2023/06/05 12:50:29;;;;;;;3.47;1.45;;;;;;;25.14;24.98;100692.92;1728772;82;21960;-82
2023/06/05 12:53:34;;;;;;;2.83;1.22;;;;;;;25.16;24.92;100691.53;1737690;82;21471;-81
2023/06/05 12:56:45;;;;;;;5.05;1.52;;;;;;;25.06;24.76;100687.20;1739032;82;21318;-81
2023/06/05 12:59:50;;;;;;;3.98;1.52;;;;;;;25.19;24.79;100692.97;1737301;82;22575;-81
2023/06/05 13:02:58;;;;;;;4.92;1.50;;;;;;;25.20;25.04;100694.09;1739218;82;21306;-81
2023/06/05 13:06:04;;;;;;;6.12;1.62;;;;;;;25.20;24.68;100680.66;1738924;82;21314;-81
2023/06/05 13:09:11;;;;;;;13.88;1.40;;;;;;;25.34;24.35;100683.32;1738907;81;21224;-82
2023/06/05 13:12:16;;;;;;;2.70;1.40;;;;;;;25.45;25.14;100680.05;1738898;82;21310;-81
2023/06/05 13:15:22;;;;;;;6.00;1.37;;;;;;;25.50;24.57;100687.09;1737276;82;21338;-82
2023/06/05 13:18:28;;;;;;;5.72;1.50;;;;;;;25.48;24.14;100679.53;1736977;82;21319;-81
2023/06/05 13:21:34;;;;;;;4.87;1.65;;;;;;;25.51;24.65;100680.97;1737240;82;21913;-81
2023/06/05 13:24:40;;;;;;;8.13;1.72;;;;;;;25.41;24.66;100676.97;1737538;82;21311;-81
2023/06/05 13:27:46;;;;;;;2.72;1.72;;;;;;;25.32;24.17;100680.52;1738191;82;21350;-81
2023/06/05 13:30:55;;;;;;;8.40;1.22;;;;;;;25.30;24.59;100682.16;1739531;82;21295;-81
2023/06/05 13:34:00;;;;;;;7.87;1.45;;;;;;;25.21;24.67;100681.78;1739791;82;21885;-81
2023/06/05 13:37:05;;;;;;;3.50;1.40;;;;;;;25.28;25.00;100677.95;1739507;82;21302;-81
2023/06/05 13:40:09;;;;;;;4.70;1.35;;;;;;;25.24;25.36;100675.67;1739665;82;21323;-81
2023/06/05 13:43:03;;;;;;;3.08;1.40;;;;;;;25.07;25.37;100677.72;1739643;82;22171;-81
2023/06/05 13:46:08;;;;;;;5.40;1.50;;;;;;;25.15;24.80;100673.06;1738845;80;21318;-82
2023/06/05 13:49:13;;;;;;;4.42;1.40;;;;;;;25.30;25.09;100678.52;1738540;82;21303;-81
2023/06/05 13:52:18;;;;;;;3.35;1.30;;;;;;;25.48;24.26;100669.73;1738669;82;21307;-81
2023/06/05 13:55:26;;;;;;;3.08;1.30;;;;;;;25.42;24.98;100680.05;1738538;82;21755;-82
2023/06/05 13:58:35;;;;;;;4.70;1.42;;;;;;;25.34;24.66;100671.28;1737597;82;21846;-81
2023/06/05 14:01:41;;;;;;;6.70;1.60;;;;;;;25.38;25.00;100669.64;1737588;82;21886;-82
2023/06/05 14:04:47;;;;;;;4.12;1.50;;;;;;;25.44;24.70;100665.77;1738493;82;21299;-81
2023/06/05 14:07:52;;;;;;;2.98;1.22;;;;;;;25.46;24.37;100671.41;1738263;82;21311;-81
2023/06/05 14:10:59;;;;;;;2.02;1.30;;;;;;;25.42;24.58;100666.61;1738612;82;21302;-81
2023/06/05 14:13:51;;;;;;;7.58;1.32;;;;;;;25.33;24.70;100666.23;1737127;82;21299;-81
2023/06/05 14:16:56;;;;;;;5.75;1.42;;;;;;;25.24;24.68;100671.47;1737214;82;21838;-81
2023/06/05 14:20:03;;;;;;;4.17;1.40;;;;;;;25.26;25.00;100669.80;1737221;82;21303;-81
2023/06/05 14:23:08;;;;;;;10.80;1.85;;;;;;;25.30;25.16;100658.92;1738514;82;21300;-81
2023/06/05 14:26:13;;;;;;;9.48;1.60;;;;;;;25.24;25.51;100665.88;1738501;82;21295;-81